createdAt,value
2018-06-19T00:01:56.481Z,17.63
2018-06-19T00:04:23.750Z,16.00
2018-06-19T00:06:51.230Z,22.40
2018-06-19T00:09:18.517Z,29.60
2018-06-19T00:11:45.795Z,17.30
2018-06-19T00:14:13.073Z,21.10
2018-06-19T00:16:40.372Z,23.60
2018-06-19T00:19:07.904Z,20.80
2018-06-19T00:21:37.597Z,18.43
2018-06-19T00:24:04.890Z,22.93
2018-06-19T00:26:32.261Z,23.90
2018-06-19T00:28:59.681Z,21.87
2018-06-19T00:31:26.967Z,23.07
2018-06-19T00:33:54.240Z,24.90
2018-06-19T00:36:21.516Z,22.13
2018-06-19T00:38:48.797Z,29.53
2018-06-19T00:41:16.060Z,24.80
2018-06-19T00:43:43.344Z,24.30
2018-06-19T00:46:10.666Z,25.87
2018-06-19T00:48:37.928Z,24.73
2018-06-19T00:51:05.202Z,22.83
2018-06-19T00:53:32.469Z,23.77
2018-06-19T00:56:05.821Z,26.47
2018-06-19T00:58:33.101Z,31.83
2018-06-19T01:01:00.397Z,30.00
2018-06-19T01:03:27.673Z,25.70
2018-06-19T01:05:54.946Z,24.73
2018-06-19T01:08:22.513Z,31.30
2018-06-19T01:10:49.801Z,22.30
2018-06-19T01:13:17.060Z,27.80
2018-06-19T01:15:44.345Z,23.20
2018-06-19T01:18:11.695Z,28.23
2018-06-19T01:20:38.979Z,24.97
2018-06-19T01:23:06.249Z,21.90
2018-06-19T01:25:33.517Z,26.37
2018-06-19T01:28:00.789Z,22.70
2018-06-19T01:30:28.076Z,26.80
2018-06-19T01:32:55.365Z,25.23
2018-06-19T01:35:22.662Z,24.50
2018-06-19T01:37:49.962Z,22.00
2018-06-19T01:40:17.251Z,25.03
2018-06-19T01:42:44.537Z,23.53
2018-06-19T01:45:11.849Z,22.50
2018-06-19T01:47:39.157Z,23.63
2018-06-19T01:50:06.476Z,25.07
2018-06-19T01:52:33.785Z,26.57
2018-06-19T01:55:01.089Z,28.13
2018-06-19T01:57:28.358Z,26.57
2018-06-19T01:59:55.676Z,24.47
2018-06-19T02:02:22.944Z,23.50
2018-06-19T02:04:50.235Z,25.73
2018-06-19T02:07:17.564Z,25.00
2018-06-19T02:09:45.023Z,24.23
2018-06-19T02:12:12.373Z,25.00
2018-06-19T02:14:39.640Z,32.17
2018-06-19T02:17:06.917Z,27.43
2018-06-19T02:19:34.189Z,26.90
2018-06-19T02:22:01.469Z,22.77
2018-06-19T02:24:28.741Z,30.63
2018-06-19T02:26:56.017Z,27.73
2018-06-19T02:29:23.290Z,25.80
2018-06-19T02:31:50.583Z,29.13
2018-06-19T02:34:17.858Z,27.13
2018-06-19T02:36:45.145Z,23.83
2018-06-19T02:39:12.466Z,38.10
2018-06-19T02:41:40.146Z,24.23
2018-06-19T02:44:07.618Z,28.80
2018-06-19T02:46:34.917Z,31.90
2018-06-19T02:49:02.331Z,29.20
2018-06-19T02:51:29.840Z,29.00
2018-06-19T02:53:57.193Z,28.80
2018-06-19T02:56:24.461Z,27.70
2018-06-19T02:58:51.877Z,28.90
2018-06-19T03:01:19.197Z,33.53
2018-06-19T03:03:46.463Z,31.20
2018-06-19T03:06:13.773Z,29.83
2018-06-19T03:08:41.054Z,34.03
2018-06-19T03:11:08.561Z,40.60
2018-06-19T03:13:35.895Z,32.53
2018-06-19T03:16:03.111Z,30.60
2018-06-19T03:18:30.496Z,30.67
2018-06-19T03:20:57.761Z,28.10
2018-06-19T03:23:25.042Z,29.43
2018-06-19T03:25:52.376Z,29.10
2018-06-19T03:28:19.658Z,27.33
2018-06-19T03:30:46.950Z,29.63
2018-06-19T03:33:14.225Z,31.97
2018-06-19T03:35:41.553Z,37.67
2018-06-19T03:38:08.856Z,37.00
2018-06-19T03:40:36.132Z,42.90
2018-06-19T03:43:03.437Z,31.50
2018-06-19T03:45:30.714Z,32.97
2018-06-19T03:47:58.000Z,32.33
2018-06-19T03:50:25.286Z,39.57
2018-06-19T03:52:52.561Z,35.50
2018-06-19T03:55:19.896Z,29.07
2018-06-19T03:57:47.182Z,39.37
2018-06-19T04:00:14.497Z,37.90
2018-06-19T04:02:41.790Z,35.87
2018-06-19T04:05:09.072Z,36.00
2018-06-19T04:07:36.364Z,39.33
2018-06-19T04:10:03.761Z,38.47
2018-06-19T04:12:31.249Z,36.00
2018-06-19T04:14:58.525Z,37.63
2018-06-19T04:17:26.894Z,35.90
2018-06-19T04:19:55.521Z,38.87
2018-06-19T04:22:23.097Z,36.37
2018-06-19T04:24:50.373Z,36.80
2018-06-19T04:27:17.655Z,44.57
2018-06-19T04:29:44.933Z,37.83
2018-06-19T04:32:12.249Z,39.30
2018-06-19T04:34:39.580Z,33.97
2018-06-19T04:37:06.892Z,27.57
2018-06-19T04:39:34.173Z,34.00
2018-06-19T04:42:01.512Z,41.27
2018-06-19T04:44:28.758Z,36.07
2018-06-19T04:46:56.050Z,34.70
2018-06-19T04:49:23.338Z,38.50
2018-06-19T04:51:50.667Z,41.53
2018-06-19T04:54:17.961Z,42.50
2018-06-19T04:56:45.252Z,36.67
2018-06-19T04:59:12.606Z,31.70
2018-06-19T05:01:40.115Z,31.17
2018-06-19T05:04:07.424Z,31.43
2018-06-19T05:06:34.745Z,36.53
2018-06-19T05:09:02.077Z,33.67
2018-06-19T05:11:29.404Z,29.40
2018-06-19T05:13:56.840Z,29.20
2018-06-19T05:16:24.153Z,32.70
2018-06-19T05:18:51.468Z,35.40
2018-06-19T05:21:18.762Z,30.60
2018-06-19T05:23:46.046Z,27.80
2018-06-19T05:26:13.411Z,30.40
2018-06-19T05:28:40.737Z,32.27
2018-06-19T05:31:08.057Z,31.00
2018-06-19T05:33:35.365Z,35.57
2018-06-19T05:36:02.673Z,29.97
2018-06-19T05:38:29.936Z,35.33
2018-06-19T05:40:57.260Z,32.77
2018-06-19T05:43:24.545Z,31.57
2018-06-19T05:45:51.829Z,26.77
2018-06-19T05:48:19.125Z,28.30
2018-06-19T05:50:46.409Z,26.27
2018-06-19T05:53:13.735Z,27.37
2018-06-19T05:55:41.037Z,28.77
2018-06-19T05:58:08.416Z,27.47
2018-06-19T06:00:35.705Z,32.20
2018-06-19T06:03:03.018Z,29.50
2018-06-19T06:05:30.363Z,45.17
2018-06-19T06:07:57.581Z,28.03
2018-06-19T06:10:24.943Z,26.83
2018-06-19T06:12:52.260Z,29.60
2018-06-19T06:15:19.741Z,25.00
2018-06-19T06:17:47.076Z,23.37
2018-06-19T06:20:14.385Z,27.23
2018-06-19T06:22:42.260Z,25.80
2018-06-19T06:25:09.537Z,25.37
2018-06-19T06:27:36.893Z,20.97
2018-06-19T06:30:04.209Z,24.57
2018-06-19T06:32:31.513Z,22.93
2018-06-19T06:34:58.777Z,31.30
2018-06-19T06:37:26.065Z,33.53
2018-06-19T06:39:53.366Z,33.17
2018-06-19T06:42:20.678Z,26.87
2018-06-19T06:44:48.072Z,29.00
2018-06-19T06:47:15.289Z,30.47
2018-06-19T06:49:42.565Z,25.00
2018-06-19T06:52:09.862Z,22.10
2018-06-19T06:54:37.229Z,30.13
2018-06-19T06:57:04.497Z,22.20
2018-06-19T06:59:31.772Z,23.13
2018-06-19T07:01:59.049Z,24.37
2018-06-19T07:04:26.572Z,24.77
2018-06-19T07:06:53.885Z,20.17
2018-06-19T07:09:21.156Z,19.60
2018-06-19T07:11:48.445Z,24.30
2018-06-19T07:14:15.752Z,25.87
2018-06-19T07:16:43.256Z,26.53
2018-06-19T07:19:10.578Z,15.70
2018-06-19T07:21:37.815Z,20.53
2018-06-19T07:24:05.093Z,18.90
2018-06-19T07:26:32.606Z,19.17
2018-06-19T07:28:59.921Z,18.63
2018-06-19T07:31:27.191Z,22.90
2018-06-19T07:33:54.474Z,18.27
2018-06-19T07:36:21.981Z,15.50
2018-06-19T07:38:49.349Z,18.93
2018-06-19T07:41:16.625Z,17.77
2018-06-19T07:43:43.980Z,18.23
2018-06-19T07:46:11.257Z,23.07
2018-06-19T07:48:38.565Z,24.60
2018-06-19T07:51:05.849Z,16.97
2018-06-19T07:53:33.124Z,23.00
2018-06-19T07:56:00.421Z,16.50
2018-06-19T07:58:27.729Z,21.43
2018-06-19T08:00:55.020Z,19.90
2018-06-19T08:03:22.295Z,17.23
2018-06-19T08:05:49.561Z,20.43
2018-06-19T08:08:16.872Z,18.40
2018-06-19T08:10:44.159Z,19.53
2018-06-19T08:13:11.496Z,15.60
2018-06-19T08:15:39.002Z,15.03
2018-06-19T08:18:06.569Z,18.13
2018-06-19T08:20:33.861Z,17.30
2018-06-19T08:23:01.145Z,15.83
2018-06-19T08:25:28.435Z,16.20
2018-06-19T08:27:55.737Z,21.93
2018-06-19T08:30:23.021Z,23.30
2018-06-19T08:32:50.324Z,15.20
2018-06-19T08:35:17.637Z,14.03
2018-06-19T08:37:44.937Z,21.90
2018-06-19T08:40:12.222Z,13.47
2018-06-19T08:42:39.523Z,12.60
2018-06-19T08:45:06.794Z,16.40
2018-06-19T08:47:34.064Z,12.00
2018-06-19T08:50:01.356Z,12.57
2018-06-19T08:52:28.673Z,16.33
2018-06-19T08:54:55.989Z,12.17
2018-06-19T08:57:23.274Z,14.33
2018-06-19T08:59:50.553Z,12.63
2018-06-19T09:02:17.875Z,10.40
2018-06-19T09:04:45.694Z,17.40
2018-06-19T09:07:13.009Z,10.00
2018-06-19T09:09:40.301Z,16.03
2018-06-19T09:12:07.634Z,19.77
2018-06-19T09:14:34.912Z,16.57
2018-06-19T09:17:02.330Z,12.80
2018-06-19T09:19:29.762Z,12.63
2018-06-19T09:21:57.077Z,13.83
2018-06-19T09:24:24.344Z,12.17
2018-06-19T09:26:51.636Z,11.67
2018-06-19T09:29:18.962Z,11.43
2018-06-19T09:31:46.262Z,12.87
2018-06-19T09:34:13.583Z,9.10
2018-06-19T09:36:40.940Z,18.83
2018-06-19T09:39:10.108Z,10.37
2018-06-19T09:41:37.453Z,13.70
2018-06-19T09:44:04.871Z,10.20
2018-06-19T09:46:32.241Z,10.80
2018-06-19T09:48:59.560Z,12.90
2018-06-19T09:51:26.917Z,12.53
2018-06-19T09:53:54.252Z,15.70
2018-06-19T09:56:21.594Z,17.80
2018-06-19T09:58:49.081Z,15.63
2018-06-19T10:01:16.400Z,15.07
2018-06-19T10:03:43.773Z,23.57
2018-06-19T10:06:11.098Z,19.03
2018-06-19T10:08:38.362Z,18.63
2018-06-19T10:11:05.670Z,23.90
2018-06-19T10:13:32.948Z,18.07
2018-06-19T10:16:00.249Z,26.53
2018-06-19T10:18:27.554Z,24.80
2018-06-19T10:20:55.051Z,24.10
2018-06-19T10:23:22.329Z,25.00
2018-06-19T10:25:49.616Z,24.40
2018-06-19T10:28:16.938Z,23.40
2018-06-19T10:30:44.242Z,25.83
2018-06-19T10:33:11.538Z,24.77
2018-06-19T10:35:38.839Z,35.33
2018-06-19T10:38:06.133Z,29.67
2018-06-19T10:40:33.414Z,19.03
2018-06-19T10:43:00.721Z,28.30
2018-06-19T10:45:28.024Z,26.37
2018-06-19T10:47:55.297Z,22.50
2018-06-19T10:50:22.576Z,25.50
2018-06-19T10:52:49.941Z,26.33
2018-06-19T10:55:17.153Z,26.50
2018-06-19T10:57:44.438Z,34.77
2018-06-19T11:00:11.753Z,33.40
2018-06-19T11:02:39.026Z,24.30
2018-06-19T11:05:06.371Z,26.37
2018-06-19T11:07:33.656Z,29.10
2018-06-19T11:10:01.397Z,26.90
2018-06-19T11:12:29.032Z,31.60
2018-06-19T11:14:56.361Z,27.80
2018-06-19T11:17:23.673Z,22.97
2018-06-19T11:19:51.016Z,28.60
2018-06-19T11:22:18.540Z,28.07
2018-06-19T11:24:45.942Z,19.53
2018-06-19T11:27:13.253Z,20.90
2018-06-19T11:29:41.082Z,25.70
2018-06-19T11:32:08.393Z,16.10
2018-06-19T11:34:35.716Z,15.87
2018-06-19T11:37:03.025Z,14.30
2018-06-19T11:39:30.360Z,16.17
2018-06-19T11:41:57.649Z,13.20
2018-06-19T11:44:24.938Z,12.20
2018-06-19T11:46:52.237Z,11.67
2018-06-19T11:49:19.599Z,12.60
2018-06-19T11:51:46.830Z,14.70
2018-06-19T11:54:14.112Z,14.07
2018-06-19T11:56:41.445Z,12.53
2018-06-19T11:59:08.694Z,12.80
2018-06-19T12:01:36.018Z,12.43
2018-06-19T12:04:03.332Z,18.27
2018-06-19T12:06:30.616Z,14.60
2018-06-19T12:08:57.901Z,10.37
2018-06-19T12:11:25.191Z,15.27
2018-06-19T12:13:52.617Z,10.00
2018-06-19T12:16:19.957Z,14.03
2018-06-19T12:18:47.265Z,11.83
2018-06-19T12:21:14.565Z,13.07
2018-06-19T12:23:42.073Z,10.27
2018-06-19T12:26:09.373Z,8.20
2018-06-19T12:28:36.698Z,7.13
2018-06-19T12:31:03.993Z,11.67
2018-06-19T12:33:31.281Z,8.03
2018-06-19T12:35:58.601Z,8.10
2018-06-19T12:38:25.908Z,7.23
2018-06-19T12:40:53.402Z,8.87
2018-06-19T12:43:20.777Z,12.63
2018-06-19T12:45:48.151Z,7.10
2018-06-19T12:48:15.435Z,8.67
2018-06-19T12:50:48.448Z,6.80
2018-06-19T12:53:21.608Z,10.63
2018-06-19T12:55:55.089Z,28.43
2018-06-19T12:58:22.388Z,7.77
2018-06-19T13:00:49.681Z,7.63
2018-06-19T13:03:23.069Z,10.57
2018-06-19T13:05:56.306Z,5.63
2018-06-19T13:08:23.596Z,5.17
2018-06-19T13:10:50.888Z,7.43
2018-06-19T13:13:26.463Z,7.30
2018-06-19T13:15:54.744Z,7.80
2018-06-19T13:18:28.014Z,4.23
2018-06-19T13:20:55.303Z,3.60
2018-06-19T13:23:22.660Z,10.93
2018-06-19T13:25:50.429Z,5.13
2018-06-19T13:28:17.739Z,5.93
2018-06-19T13:30:50.909Z,7.17
2018-06-19T13:33:18.212Z,4.27
2018-06-19T13:35:45.499Z,8.70
2018-06-19T13:38:12.822Z,4.63
2018-06-19T13:40:55.188Z,4.00
2018-06-19T13:43:28.193Z,11.53
2018-06-19T13:45:55.484Z,7.70
2018-06-19T13:48:22.781Z,4.50
2018-06-19T13:50:50.066Z,4.23
2018-06-19T13:53:17.337Z,4.37
2018-06-19T13:57:53.522Z,4.50
2018-06-19T14:00:21.617Z,9.70
2018-06-19T14:02:49.215Z,5.50
2018-06-19T14:05:17.682Z,6.40
2018-06-19T14:08:05.289Z,5.73
2018-06-19T14:10:38.240Z,8.77
2018-06-19T14:13:05.531Z,5.67
2018-06-19T14:15:34.634Z,5.57
2018-06-19T14:18:01.957Z,5.87
2018-06-19T14:20:29.250Z,10.87
2018-06-19T14:22:56.558Z,6.47
2018-06-19T14:25:24.191Z,6.67
2018-06-19T14:27:51.713Z,6.87
2018-06-19T14:30:19.000Z,5.27
2018-06-19T14:32:46.705Z,8.00
2018-06-19T14:35:14.236Z,3.77
2018-06-19T14:37:41.812Z,9.40
2018-06-19T14:40:09.089Z,3.60
2018-06-19T14:42:36.372Z,6.77
2018-06-19T14:45:03.945Z,7.67
2018-06-19T14:47:31.257Z,6.87
2018-06-19T14:49:59.133Z,14.10
2018-06-19T14:52:26.499Z,5.23
2018-06-19T14:54:53.814Z,3.80
2018-06-19T14:57:21.109Z,14.53
2018-06-19T14:59:48.409Z,7.20
2018-06-19T15:02:15.717Z,7.00
2018-06-19T15:04:43.075Z,8.37
2018-06-19T15:07:10.372Z,6.03
2018-06-19T15:09:37.682Z,5.00
2018-06-19T15:12:05.026Z,5.40
2018-06-19T15:14:32.321Z,6.83
2018-06-19T15:16:59.649Z,3.03
2018-06-19T15:19:26.942Z,2.00
2018-06-19T15:21:54.214Z,4.60
2018-06-19T15:24:21.530Z,8.07
2018-06-19T15:26:48.891Z,5.23
2018-06-19T15:29:16.457Z,6.10
2018-06-19T15:31:43.785Z,4.30
2018-06-19T15:34:11.095Z,5.13
2018-06-19T15:36:38.647Z,5.20
2018-06-19T15:39:07.021Z,5.03
2018-06-19T15:41:34.324Z,3.27
2018-06-19T15:44:01.805Z,2.93
2018-06-19T15:46:29.133Z,5.63
2018-06-19T15:48:56.488Z,5.83
2018-06-19T15:51:23.769Z,2.43
2018-06-19T15:53:51.742Z,3.07
2018-06-19T15:56:19.058Z,4.93
2018-06-19T15:58:46.341Z,4.27
2018-06-19T16:01:13.851Z,5.17
2018-06-19T16:03:41.309Z,7.33
2018-06-19T16:06:08.641Z,2.13
2018-06-19T16:08:35.961Z,3.47
2018-06-19T16:11:03.275Z,2.13
2018-06-19T16:13:30.738Z,5.00
2018-06-19T16:15:59.171Z,5.37
2018-06-19T16:18:26.464Z,2.30
2018-06-19T16:20:53.950Z,4.27
2018-06-19T16:23:21.234Z,8.00
2018-06-19T16:25:48.512Z,2.53
2018-06-19T16:28:15.832Z,3.00
2018-06-19T16:30:43.313Z,7.17
2018-06-19T16:33:10.728Z,2.20
2018-06-19T16:35:38.042Z,7.20
2018-06-19T16:38:05.535Z,6.00
2018-06-19T16:40:32.985Z,4.03
2018-06-19T16:43:00.276Z,2.63
2018-06-19T16:45:27.605Z,3.70
2018-06-19T16:47:54.872Z,5.53
2018-06-19T16:50:22.149Z,1.57
2018-06-19T16:52:49.429Z,3.60
2018-06-19T16:55:16.711Z,7.33
2018-06-19T16:57:44.237Z,2.70
2018-06-19T17:00:11.880Z,2.40
2018-06-19T17:02:39.171Z,2.50
2018-06-19T17:05:06.445Z,4.20
2018-06-19T17:07:33.733Z,5.37
2018-06-19T17:10:01.028Z,5.10
2018-06-19T17:12:28.476Z,2.60
2018-06-19T17:14:55.809Z,4.00
2018-06-19T17:17:23.105Z,4.17
2018-06-19T17:19:50.405Z,8.77
2018-06-19T17:22:17.704Z,3.47
2018-06-19T17:24:45.062Z,4.57
2018-06-19T17:27:12.405Z,1.83
2018-06-19T17:29:40.042Z,2.50
2018-06-19T17:32:07.543Z,2.57
2018-06-19T17:34:34.919Z,1.47
2018-06-19T17:37:02.308Z,3.23
2018-06-19T17:39:29.597Z,3.07
2018-06-19T17:41:56.899Z,3.43
2018-06-19T17:44:24.194Z,5.67
2018-06-19T17:46:51.541Z,9.27
2018-06-19T17:51:57.441Z,5.13
2018-06-19T17:54:24.801Z,4.37
2018-06-19T17:56:52.089Z,3.80
2018-06-19T17:59:19.372Z,5.60
2018-06-19T18:01:46.721Z,1.77
2018-06-19T18:04:14.017Z,6.00
2018-06-19T18:06:41.304Z,12.63
2018-06-19T18:09:10.152Z,4.57
2018-06-19T18:11:37.457Z,10.70
2018-06-19T18:14:04.885Z,7.80
2018-06-19T18:16:32.190Z,3.47
2018-06-19T18:18:59.472Z,9.70
2018-06-19T18:21:26.830Z,3.40
2018-06-19T18:23:54.123Z,3.43
2018-06-19T18:26:21.425Z,9.00
2018-06-19T18:28:48.733Z,4.60
2018-06-19T18:31:16.010Z,9.33
2018-06-19T18:33:43.319Z,8.27
2018-06-19T18:36:10.849Z,5.50
2018-06-19T18:38:38.129Z,4.03
2018-06-19T18:41:05.615Z,3.13
2018-06-19T18:43:32.917Z,4.47
2018-06-19T18:46:00.561Z,5.50
2018-06-19T18:48:27.957Z,7.57
2018-06-19T18:50:55.329Z,14.60
2018-06-19T18:53:22.738Z,7.80
2018-06-19T18:55:50.094Z,7.50
2018-06-19T18:58:17.428Z,3.10
2018-06-19T19:00:44.711Z,5.60
2018-06-19T19:03:12.021Z,7.20
2018-06-19T19:05:39.341Z,11.73
2018-06-19T19:08:10.829Z,9.13
2018-06-19T19:10:43.957Z,9.10
2018-06-19T19:13:12.053Z,5.10
2018-06-19T19:15:45.081Z,4.47
2018-06-19T19:18:18.199Z,4.90
2018-06-19T19:20:45.565Z,5.93
2018-06-19T19:23:13.701Z,7.37
2018-06-19T19:25:41.001Z,8.50
2018-06-19T19:28:14.183Z,5.10
2018-06-19T19:30:41.555Z,4.13
2018-06-19T19:33:08.840Z,8.00
2018-06-19T19:35:36.266Z,8.07
2018-06-19T19:38:09.168Z,6.80
2018-06-19T19:40:36.481Z,6.10
2018-06-19T19:43:04.058Z,7.43
2018-06-19T19:45:31.404Z,6.43
2018-06-19T19:48:04.517Z,8.83
2018-06-19T19:50:31.813Z,6.40
2018-06-19T19:52:59.109Z,10.20
2018-06-19T19:55:26.425Z,7.50
2018-06-19T19:57:59.600Z,6.23
2018-06-19T20:00:26.946Z,8.10
2018-06-19T20:02:54.927Z,9.13
2018-06-19T20:05:22.200Z,8.40
2018-06-19T20:07:49.480Z,7.27
2018-06-19T20:10:16.771Z,13.00
2018-06-19T20:12:44.117Z,8.80
2018-06-19T20:15:11.449Z,6.77
2018-06-19T20:17:38.766Z,10.20
2018-06-19T20:20:06.557Z,9.40
2018-06-19T20:22:33.825Z,10.43
2018-06-19T20:25:01.084Z,6.83
2018-06-19T20:27:28.381Z,10.40
2018-06-19T20:29:55.673Z,6.83
2018-06-19T20:32:22.969Z,14.03
2018-06-19T20:34:50.281Z,7.13
2018-06-19T20:37:17.774Z,11.37
2018-06-19T20:39:45.062Z,6.27
2018-06-19T20:42:12.393Z,5.27
2018-06-19T20:44:39.674Z,7.43
2018-06-19T20:47:06.968Z,7.83
2018-06-19T20:49:34.248Z,6.90
2018-06-19T20:52:01.524Z,6.40
2018-06-19T20:54:28.861Z,6.30
2018-06-19T20:56:56.141Z,7.33
2018-06-19T20:59:23.408Z,9.90
2018-06-19T21:01:50.807Z,14.73
2018-06-19T21:04:30.505Z,5.87
2018-06-19T21:06:57.922Z,10.97
2018-06-19T21:09:25.358Z,11.97
2018-06-19T21:11:52.793Z,4.23
2018-06-19T21:14:20.203Z,6.17
2018-06-19T21:16:47.655Z,14.53
2018-06-19T21:19:15.065Z,7.43
2018-06-19T21:21:42.495Z,6.33
2018-06-19T21:24:09.971Z,6.07
2018-06-19T21:26:37.439Z,10.73
2018-06-19T21:29:05.033Z,4.60
2018-06-19T21:31:32.469Z,8.43
2018-06-19T21:34:00.047Z,9.40
2018-06-19T21:36:27.478Z,10.13
2018-06-19T21:38:55.292Z,5.87
2018-06-19T21:41:23.048Z,5.97
2018-06-19T21:43:50.472Z,9.80
2018-06-19T21:46:17.884Z,5.93
2018-06-19T21:48:45.506Z,11.03
2018-06-19T21:51:12.952Z,8.60
2018-06-19T21:53:40.381Z,20.97
2018-06-19T21:56:07.862Z,8.67
2018-06-19T21:58:35.317Z,8.30
2018-06-19T22:01:02.770Z,5.83
2018-06-19T22:03:30.213Z,7.73
2018-06-19T22:05:57.625Z,8.90
2018-06-19T22:08:31.486Z,14.57
2018-06-19T22:10:58.897Z,15.17
2018-06-19T22:13:26.353Z,7.67
2018-06-19T22:15:53.760Z,6.60
2018-06-19T22:18:21.169Z,5.57
2018-06-19T22:20:48.629Z,11.10
2018-06-19T22:23:16.065Z,17.07
2018-06-19T22:25:43.499Z,12.07
2018-06-19T22:28:12.308Z,10.97
2018-06-19T22:30:40.022Z,11.00
2018-06-19T22:33:07.534Z,16.13
2018-06-19T22:35:34.973Z,12.70
2018-06-19T22:38:02.437Z,6.60
2018-06-19T22:40:30.049Z,13.67
2018-06-19T22:42:57.493Z,7.83
2018-06-19T22:45:24.908Z,6.47
2018-06-19T22:47:52.381Z,10.20
2018-06-19T22:50:19.799Z,8.50
2018-06-19T22:52:47.236Z,8.67
2018-06-19T22:55:14.647Z,10.27
2018-06-19T22:57:42.094Z,12.93
2018-06-19T23:00:09.591Z,16.50
2018-06-19T23:02:37.009Z,11.50
2018-06-19T23:05:04.437Z,11.00
2018-06-19T23:07:31.852Z,13.30
2018-06-19T23:09:59.284Z,10.00
2018-06-19T23:12:26.697Z,13.33
2018-06-19T23:14:54.155Z,8.83
2018-06-19T23:17:21.598Z,12.87
2018-06-19T23:19:48.996Z,7.83
2018-06-19T23:22:16.416Z,22.33
2018-06-19T23:24:43.850Z,8.90
2018-06-19T23:27:11.300Z,12.87
2018-06-19T23:29:38.757Z,14.67
2018-06-19T23:32:06.177Z,11.20
2018-06-19T23:34:33.612Z,14.27
2018-06-19T23:37:01.052Z,9.40
2018-06-19T23:39:28.508Z,12.60
2018-06-19T23:41:56.094Z,9.60
2018-06-19T23:44:23.536Z,13.40
2018-06-19T23:46:50.968Z,10.90
2018-06-19T23:49:18.397Z,9.83
2018-06-19T23:51:45.805Z,5.53
2018-06-19T23:54:13.224Z,14.37
2018-06-19T23:56:40.691Z,11.73
2018-06-19T23:59:08.124Z,12.03
